This is the latest recevied weather packets stored in our database for station/object IW0RQH-13. If no packets are shown the sender has not sent any weather packets the latest 10 day(s).
| Time | Temp. | Humidity | Pressure | Rain* | Wind** | Luminosity | Snow |
|---|---|---|---|---|---|---|---|
| 1777519083 | 15.56° C | 67% | 1016.7 hPa | 0 mm | - | 0 W/m² | - |
| 1777517644 | 15.56° C | 68% | 1016.8 hPa | 0 mm | - | 0 W/m² | - |
| 1777517104 | 16.11° C | 69% | 1016.7 hPa | 0 mm | - | 0 W/m² | - |
| 1777516030 | 15.56° C | 69% | 1016.5 hPa | 0 mm | - | 0 W/m² | - |
| 1777512445 | 16.67° C | 65% | 1016.2 hPa | 0 mm | - | 0 W/m² | - |
| 1777511343 | 16.67° C | 67% | 1015.9 hPa | 0 mm | - | 0 W/m² | - |
| 1777507205 | 16.11° C | 60% | 1016 hPa | 0 mm | - | 0 W/m² | - |
| 1777506303 | 16.11° C | 59% | 1016 hPa | 0 mm | - | 0 W/m² | - |
| 1777505225 | 16.67° C | 58% | 1015.6 hPa | 0 mm | - | 0 W/m² | - |
| 1777503250 | 16.67° C | 63% | 1015.5 hPa | 0 mm | - | 0 W/m² | - |
| 1777502703 | 16.67° C | 60% | 1015.3 hPa | 0 mm | - | 0 W/m² | - |
| 1777501623 | 16.67° C | 57% | 1015.3 hPa | 0 mm | - | 0 W/m² | - |
| 1777495503 | 17.78° C | 50% | 1015.4 hPa | 0 mm | - | 0 W/m² | - |
| 1777494424 | 18.89° C | 45% | 1015.3 hPa | 0 mm | - | 0 W/m² | - |
| 1777493344 | 19.44° C | 41% | 1015.4 hPa | 0 mm | - | 0 W/m² | - |
| 1777492803 | 19.44° C | 40% | 1015.2 hPa | 0 mm | - | 0 W/m² | - |
| 1777484703 | 22.22° C | 37% | 1013.5 hPa | 0 mm | - | 7 W/m² | - |
| 1777476965 | 23.89° C | 33% | 1012.8 hPa | 0 mm | - | 110 W/m² | - |
| 1777470308 | 24.44° C | 31% | 1013.3 hPa | 0 mm | - | 523 W/m² | - |
| 1777467258 | 25° C | 27% | 1013.7 hPa | 0 mm | - | 634 W/m² | - |
| 1777466703 | 24.44° C | 31% | 1013.7 hPa | 0 mm | - | 651 W/m² | - |
| 1777463644 | 22.78° C | 38% | 1013.9 hPa | 0 mm | - | 756 W/m² | - |
| 1777458438 | 22.22° C | 35% | 1014.4 hPa | 0 mm | - | 718 W/m² | - |
| 1777453764 | 18.33° C | 54% | 1014.9 hPa | 0 mm | - | 662 W/m² | - |
| 1777447083 | 15° C | 64% | 1015.8 hPa | 0 mm | - | 377 W/m² | - |
* Rain latest hour (hover to see other rain measurements)
** Current wind speed in m/s (hover to see current wind gust speed)